Terminal Aerodrome Forecast
Issued by NWS Pittsburgh, PA

Current Version | Previous Version | Graphics & Text | Print | Product List | Glossary On
Versions: 1 2 3 4 5 6 7 8 9 10 11 12 13 14 15 16 17 18 19 20 21 22 23 24 25
241
FTUS41 KPBZ 250242 AAA
TAFPIT
TAF AMD
KPIT 250242Z 2503/2606 25007KT P6SM SCT060
     FM251500 26011G20KT P6SM SCT060
     FM260200 26006KT P6SM SKC=

USA.gov is the U.S. government's official web portal to all federal, state and local government web resources and services.